createdAt,value
2019-03-04T00:00:17.021Z,995.18
2019-03-04T00:01:17.358Z,995.18
2019-03-04T00:02:17.639Z,995.21
2019-03-04T00:03:17.894Z,995.13
2019-03-04T00:04:18.195Z,995.14
2019-03-04T00:05:18.460Z,995.14
2019-03-04T00:06:18.701Z,995.12
2019-03-04T00:07:18.994Z,995.16
2019-03-04T00:08:19.289Z,995.08
2019-03-04T00:09:19.608Z,995.14
2019-03-04T00:10:19.964Z,995.12
2019-03-04T00:11:20.104Z,995.18
2019-03-04T00:12:20.391Z,995.12
2019-03-04T00:13:20.687Z,995.08
2019-03-04T00:14:21.253Z,995.04
2019-03-04T00:15:21.239Z,995.00
2019-03-04T00:16:21.473Z,995.01
2019-03-04T00:17:21.752Z,995.02
2019-03-04T00:18:22.208Z,995.05
2019-03-04T00:19:22.333Z,995.02
2019-03-04T00:20:22.624Z,995.07
2019-03-04T00:21:22.853Z,995.05
2019-03-04T00:22:23.156Z,995.06
2019-03-04T00:23:23.464Z,995.05
2019-03-04T00:24:23.752Z,994.99
2019-03-04T00:25:24.016Z,994.83
2019-03-04T00:26:24.309Z,994.71
2019-03-04T00:27:24.519Z,994.71
2019-03-04T00:28:24.835Z,994.69
2019-03-04T00:29:25.129Z,994.82
2019-03-04T00:30:25.388Z,994.72
2019-03-04T00:31:25.641Z,994.63
2019-03-04T00:32:25.926Z,994.54
2019-03-04T00:33:26.206Z,994.64
2019-03-04T00:34:26.583Z,994.63
2019-03-04T00:35:26.762Z,994.62
2019-03-04T00:36:27.025Z,994.61
2019-03-04T00:37:27.306Z,994.55
2019-03-04T00:38:27.596Z,994.61
2019-03-04T00:39:27.856Z,994.66
2019-03-04T00:40:28.157Z,994.67
2019-03-04T00:41:28.414Z,994.68
2019-03-04T00:42:28.708Z,994.68
2019-03-04T00:43:29.071Z,994.68
2019-03-04T00:44:29.259Z,994.67
2019-03-04T00:45:29.538Z,994.51
2019-03-04T00:46:29.791Z,994.46
2019-03-04T00:47:30.075Z,994.56
2019-03-04T00:48:30.377Z,994.61
2019-03-04T00:49:30.658Z,994.61
2019-03-04T00:50:30.908Z,994.64
2019-03-04T00:51:31.276Z,994.61
2019-03-04T00:52:31.443Z,994.50
2019-03-04T00:53:31.739Z,994.38
2019-03-04T00:54:32.000Z,994.38
2019-03-04T00:55:32.282Z,994.29
2019-03-04T00:56:32.563Z,994.39
2019-03-04T00:57:32.840Z,994.46
2019-03-04T00:58:33.134Z,994.44
2019-03-04T00:59:33.473Z,994.39
2019-03-04T01:00:33.654Z,994.34
2019-03-04T01:01:33.933Z,994.36
2019-03-04T01:02:34.210Z,994.33
2019-03-04T01:03:34.504Z,994.32
2019-03-04T01:04:34.761Z,994.36
2019-03-04T01:05:35.049Z,994.30
2019-03-04T01:06:35.322Z,994.25
2019-03-04T01:07:35.687Z,994.14
2019-03-04T01:08:35.885Z,994.17
2019-03-04T01:09:36.154Z,994.08
2019-03-04T01:10:36.438Z,994.02
2019-03-04T01:11:36.717Z,994.05
2019-03-04T01:12:36.976Z,994.02
2019-03-04T01:13:37.279Z,993.99
2019-03-04T01:14:37.558Z,994.05
2019-03-04T01:15:37.880Z,993.99
2019-03-04T01:16:38.168Z,993.90
2019-03-04T01:17:38.373Z,993.93
2019-03-04T01:18:38.681Z,993.94
2019-03-04T01:19:38.967Z,993.88
2019-03-04T01:20:39.246Z,993.84
2019-03-04T01:21:39.525Z,993.87
2019-03-04T01:22:39.791Z,993.86
2019-03-04T01:23:40.135Z,993.87
2019-03-04T01:24:40.440Z,993.85
2019-03-04T01:25:40.634Z,993.84
2019-03-04T01:26:40.920Z,993.80
2019-03-04T01:27:41.166Z,993.78
2019-03-04T01:28:41.461Z,993.76
2019-03-04T01:29:41.697Z,993.69
2019-03-04T01:30:42.003Z,993.70
2019-03-04T01:31:43.577Z,993.65
2019-03-04T01:32:42.636Z,993.59
2019-03-04T01:33:42.836Z,993.63
2019-03-04T01:34:43.081Z,993.58
2019-03-04T01:35:43.384Z,993.45
2019-03-04T01:36:43.668Z,993.43
2019-03-04T01:37:43.927Z,993.33
2019-03-04T01:38:44.220Z,993.38
2019-03-04T01:39:44.479Z,993.31
2019-03-04T01:40:45.049Z,993.27
2019-03-04T01:41:45.024Z,993.21
2019-03-04T01:42:45.283Z,993.26
2019-03-04T01:43:45.580Z,993.20
2019-03-04T01:44:45.835Z,993.12
2019-03-04T01:45:46.134Z,993.05
2019-03-04T01:46:46.387Z,993.05
2019-03-04T01:47:46.660Z,993.08
2019-03-04T01:48:47.025Z,993.04
2019-03-04T01:49:47.209Z,993.01
2019-03-04T01:50:47.521Z,992.99
2019-03-04T01:51:47.806Z,993.00
2019-03-04T01:52:48.039Z,993.02
2019-03-04T01:53:48.337Z,993.05
2019-03-04T01:54:48.605Z,993.07
2019-03-04T01:55:48.897Z,993.15
2019-03-04T01:56:49.210Z,993.25
2019-03-04T01:57:49.485Z,993.27
2019-03-04T01:58:49.729Z,993.26
2019-03-04T01:59:49.984Z,993.24
2019-03-04T02:00:50.261Z,993.30
2019-03-04T02:01:50.561Z,993.35
2019-03-04T02:02:50.811Z,993.38
2019-03-04T02:03:51.090Z,993.39
2019-03-04T02:04:51.367Z,993.39
2019-03-04T02:05:51.750Z,993.35
2019-03-04T02:06:51.965Z,993.32
2019-03-04T02:07:52.185Z,993.32
2019-03-04T02:08:52.503Z,993.33
2019-03-04T02:09:52.769Z,993.33
2019-03-04T02:10:53.069Z,993.33
2019-03-04T02:11:53.349Z,993.30
2019-03-04T02:12:53.608Z,993.32
2019-03-04T02:13:53.930Z,993.24
2019-03-04T02:14:54.141Z,993.16
2019-03-04T02:15:54.434Z,993.16
2019-03-04T02:16:54.722Z,993.22
2019-03-04T02:17:54.978Z,993.20
2019-03-04T02:18:55.248Z,993.21
2019-03-04T02:19:55.508Z,993.18
2019-03-04T02:20:55.806Z,993.13
2019-03-04T02:21:56.181Z,993.15
2019-03-04T02:22:56.349Z,993.17
2019-03-04T02:23:56.632Z,993.22
2019-03-04T02:24:56.913Z,993.25
2019-03-04T02:25:57.184Z,993.25
2019-03-04T02:26:57.516Z,993.32
2019-03-04T02:27:57.758Z,993.37
2019-03-04T02:28:58.036Z,993.40
2019-03-04T02:29:58.359Z,993.50
2019-03-04T02:30:58.621Z,993.54
2019-03-04T02:31:58.901Z,993.50
2019-03-04T02:32:59.143Z,993.51
2019-03-04T02:33:59.414Z,993.59
2019-03-04T02:34:59.702Z,993.61
2019-03-04T02:35:59.970Z,993.58
2019-03-04T02:37:00.262Z,993.53
2019-03-04T02:38:00.535Z,993.59
2019-03-04T02:39:00.940Z,993.50
2019-03-04T02:40:01.114Z,993.43
2019-03-04T02:41:01.352Z,993.37
2019-03-04T02:42:01.663Z,993.41
2019-03-04T02:43:01.916Z,993.39
2019-03-04T02:44:02.194Z,993.42
2019-03-04T02:45:02.485Z,993.41
2019-03-04T02:46:02.755Z,993.41
2019-03-04T02:47:03.116Z,993.42
2019-03-04T02:48:03.287Z,993.43
2019-03-04T02:49:03.564Z,993.36
2019-03-04T02:50:03.861Z,993.32
2019-03-04T02:51:04.127Z,993.32
2019-03-04T02:52:04.423Z,993.29
2019-03-04T02:53:04.653Z,993.20
2019-03-04T02:54:04.953Z,993.13
2019-03-04T02:55:05.282Z,993.06
2019-03-04T02:56:05.486Z,993.15
2019-03-04T02:57:05.798Z,993.03
2019-03-04T02:58:06.023Z,993.06
2019-03-04T02:59:06.302Z,993.00
2019-03-04T03:00:06.608Z,992.93
2019-03-04T03:01:06.871Z,992.89
2019-03-04T03:02:07.183Z,992.84
2019-03-04T03:03:07.442Z,992.79
2019-03-04T03:04:07.668Z,992.83
2019-03-04T03:05:07.991Z,992.77
2019-03-04T03:06:08.251Z,992.77
2019-03-04T03:07:08.580Z,992.74
2019-03-04T03:08:08.805Z,992.61
2019-03-04T03:09:09.081Z,992.66
2019-03-04T03:10:09.605Z,992.66
2019-03-04T03:11:09.653Z,992.67
2019-03-04T03:12:10.000Z,992.61
2019-03-04T03:13:10.185Z,992.57
2019-03-04T03:14:10.457Z,992.52
2019-03-04T03:15:10.741Z,992.43
2019-03-04T03:16:11.038Z,992.47
2019-03-04T03:17:11.323Z,992.35
2019-03-04T03:18:11.596Z,992.29
2019-03-04T03:19:11.856Z,992.31
2019-03-04T03:20:12.286Z,992.31
2019-03-04T03:21:12.403Z,992.32
2019-03-04T03:22:12.708Z,992.38
2019-03-04T03:23:13.004Z,992.36
2019-03-04T03:24:13.262Z,992.35
2019-03-04T03:25:13.554Z,992.41
2019-03-04T03:26:13.790Z,992.29
2019-03-04T03:27:14.079Z,992.20
2019-03-04T03:28:14.452Z,992.29
2019-03-04T03:29:14.634Z,992.25
2019-03-04T03:30:14.938Z,992.20
2019-03-04T03:31:15.197Z,992.14
2019-03-04T03:32:15.460Z,992.17
2019-03-04T03:33:15.774Z,992.17
2019-03-04T03:34:16.030Z,992.06
2019-03-04T03:35:16.319Z,992.05
2019-03-04T03:36:16.685Z,991.96
2019-03-04T03:37:16.818Z,991.93
2019-03-04T03:38:17.123Z,991.93
2019-03-04T03:39:17.388Z,991.82
2019-03-04T03:40:17.711Z,991.82
2019-03-04T03:41:17.942Z,991.88
2019-03-04T03:42:18.967Z,991.87
2019-03-04T03:43:18.538Z,991.81
2019-03-04T03:44:18.820Z,991.84
2019-03-04T03:45:19.117Z,991.79
2019-03-04T03:46:19.328Z,991.86
2019-03-04T03:47:19.609Z,991.83
2019-03-04T03:48:19.905Z,991.78
2019-03-04T03:49:20.139Z,991.71
2019-03-04T03:50:20.453Z,991.80
2019-03-04T03:51:20.706Z,991.75
2019-03-04T03:52:20.990Z,991.69
2019-03-04T03:53:21.423Z,991.62
2019-03-04T03:54:21.516Z,991.61
2019-03-04T03:55:21.832Z,991.61
2019-03-04T03:56:22.081Z,991.72
2019-03-04T03:57:22.353Z,991.68
2019-03-04T03:58:24.834Z,991.72
2019-03-04T03:59:22.921Z,991.76
2019-03-04T04:00:23.198Z,991.78
2019-03-04T04:01:23.564Z,991.76
2019-03-04T04:02:23.750Z,991.81
2019-03-04T04:03:24.058Z,991.75
2019-03-04T04:04:24.306Z,991.75
2019-03-04T04:05:24.586Z,991.82
2019-03-04T04:06:24.843Z,991.86
2019-03-04T04:07:25.135Z,991.86
2019-03-04T04:08:25.437Z,991.80
2019-03-04T04:09:25.723Z,991.79
2019-03-04T04:10:25.959Z,991.73
2019-03-04T04:11:26.209Z,991.77
2019-03-04T04:12:26.502Z,991.70
2019-03-04T04:13:26.817Z,991.72
2019-03-04T04:14:29.129Z,991.64
2019-03-04T04:15:27.355Z,991.61
2019-03-04T04:16:27.610Z,991.56
2019-03-04T04:17:27.950Z,991.52
2019-03-04T04:18:28.228Z,991.50
2019-03-04T04:19:28.473Z,991.53
2019-03-04T04:20:28.766Z,991.47
2019-03-04T04:21:29.021Z,991.45
2019-03-04T04:22:29.303Z,991.46
2019-03-04T04:23:29.602Z,991.43
2019-03-04T04:24:29.858Z,991.34
2019-03-04T04:25:30.141Z,991.31
2019-03-04T04:26:30.538Z,991.22
2019-03-04T04:27:30.675Z,991.19
2019-03-04T04:28:30.993Z,991.14
2019-03-04T04:29:31.259Z,991.14
2019-03-04T04:30:31.585Z,991.17
2019-03-04T04:31:31.827Z,991.14
2019-03-04T04:32:32.103Z,991.08
2019-03-04T04:33:32.404Z,991.02
2019-03-04T04:34:32.765Z,991.01
2019-03-04T04:35:32.941Z,990.98
2019-03-04T04:36:33.241Z,990.98
2019-03-04T04:37:33.516Z,990.95
2019-03-04T04:38:33.802Z,990.92
2019-03-04T04:39:34.047Z,990.91
2019-03-04T04:40:34.339Z,990.89
2019-03-04T04:41:34.633Z,990.89
2019-03-04T04:42:34.923Z,990.90
2019-03-04T04:43:35.186Z,990.88
2019-03-04T04:44:35.420Z,990.83
2019-03-04T04:45:35.711Z,990.84
2019-03-04T04:46:36.006Z,990.80
2019-03-04T04:47:36.266Z,990.77
2019-03-04T04:48:36.577Z,990.69
2019-03-04T04:49:37.045Z,990.74
2019-03-04T04:50:37.133Z,990.71
2019-03-04T04:51:37.367Z,990.68
2019-03-04T04:52:37.649Z,990.65
2019-03-04T04:53:37.923Z,990.61
2019-03-04T04:54:38.188Z,990.58
2019-03-04T04:55:38.465Z,990.59
2019-03-04T04:56:38.739Z,990.62
2019-03-04T04:57:39.037Z,990.58
2019-03-04T04:58:39.345Z,990.60
2019-03-04T04:59:39.650Z,990.54
2019-03-04T05:00:39.865Z,990.53
2019-03-04T05:01:40.135Z,990.50
2019-03-04T05:02:40.427Z,990.53
2019-03-04T05:03:40.737Z,990.56
2019-03-04T05:04:41.014Z,990.59
2019-03-04T05:05:41.332Z,990.52
2019-03-04T05:06:41.563Z,990.60
2019-03-04T05:07:41.909Z,990.59
2019-03-04T05:08:42.122Z,990.53
2019-03-04T05:09:42.365Z,990.54
2019-03-04T05:10:42.639Z,990.53
2019-03-04T05:11:42.934Z,990.58
2019-03-04T05:12:43.178Z,990.57
2019-03-04T05:13:43.531Z,990.63
2019-03-04T05:14:43.756Z,990.54
2019-03-04T05:15:44.077Z,990.55
2019-03-04T05:16:44.307Z,990.51
2019-03-04T05:17:44.548Z,990.51
2019-03-04T05:18:44.861Z,990.45
2019-03-04T05:19:45.122Z,990.45
2019-03-04T05:20:45.405Z,990.46
2019-03-04T05:21:45.697Z,990.43
2019-03-04T05:22:45.952Z,990.46
2019-03-04T05:23:46.309Z,990.42
2019-03-04T05:24:46.470Z,990.40
2019-03-04T05:25:46.772Z,990.33
2019-03-04T05:26:47.065Z,990.34
2019-03-04T05:27:47.325Z,990.26
2019-03-04T05:28:47.628Z,990.23
2019-03-04T05:29:47.869Z,990.20
2019-03-04T05:30:48.136Z,990.23
2019-03-04T05:31:48.486Z,990.21
2019-03-04T05:32:48.738Z,990.21
2019-03-04T05:33:48.991Z,990.15
2019-03-04T05:34:49.257Z,990.13
2019-03-04T05:35:49.517Z,990.09
2019-03-04T05:36:49.827Z,990.19
2019-03-04T05:37:50.099Z,990.17
2019-03-04T05:38:50.412Z,990.12
2019-03-04T05:39:50.698Z,990.12
2019-03-04T05:40:51.049Z,990.17
2019-03-04T05:41:51.241Z,990.06
2019-03-04T05:42:51.558Z,990.06
2019-03-04T05:43:51.793Z,990.13
2019-03-04T05:44:52.079Z,990.04
2019-03-04T05:45:52.331Z,990.07
2019-03-04T05:46:52.602Z,990.10
2019-03-04T05:47:52.863Z,990.04
2019-03-04T05:48:53.278Z,990.02
2019-03-04T05:49:53.454Z,990.05
2019-03-04T05:50:53.706Z,990.01
2019-03-04T05:51:53.994Z,990.00
2019-03-04T05:52:54.270Z,990.00
2019-03-04T05:53:54.558Z,989.99
2019-03-04T05:54:54.837Z,990.02
2019-03-04T05:55:55.083Z,989.96
2019-03-04T05:56:55.429Z,989.99
2019-03-04T05:57:55.616Z,989.89
2019-03-04T05:58:55.926Z,990.01
2019-03-04T05:59:56.212Z,989.98
2019-03-04T06:00:56.459Z,989.90
2019-03-04T06:01:56.764Z,989.92
2019-03-04T06:02:57.019Z,989.85
2019-03-04T06:03:57.292Z,989.86
2019-03-04T06:04:57.632Z,989.87
2019-03-04T06:05:57.824Z,989.89
2019-03-04T06:06:58.127Z,989.87
2019-03-04T06:07:58.380Z,989.84
2019-03-04T06:08:58.660Z,989.78
2019-03-04T06:09:58.955Z,989.76
2019-03-04T06:10:59.229Z,989.71
2019-03-04T06:11:59.523Z,989.76
2019-03-04T06:12:59.825Z,989.72
2019-03-04T06:14:00.143Z,989.71
2019-03-04T06:15:00.353Z,989.78
2019-03-04T06:16:00.609Z,989.75
2019-03-04T06:17:00.903Z,989.74
2019-03-04T06:18:01.162Z,989.65
2019-03-04T06:19:01.448Z,989.67
2019-03-04T06:20:01.718Z,989.65
2019-03-04T06:21:01.974Z,989.61
2019-03-04T06:22:02.395Z,989.58
2019-03-04T06:23:02.544Z,989.54
2019-03-04T06:24:02.853Z,989.51
2019-03-04T06:25:03.100Z,989.46
2019-03-04T06:26:03.365Z,989.39
2019-03-04T06:27:03.685Z,989.40
2019-03-04T06:28:04.166Z,989.28
2019-03-04T06:29:04.225Z,989.28
2019-03-04T06:30:04.584Z,989.31
2019-03-04T06:31:04.734Z,989.30
2019-03-04T06:32:05.047Z,989.21
2019-03-04T06:33:05.311Z,989.26
2019-03-04T06:34:05.601Z,989.17
2019-03-04T06:35:05.869Z,989.29
2019-03-04T06:36:06.137Z,989.36
2019-03-04T06:37:06.405Z,989.35
2019-03-04T06:38:06.780Z,989.32
2019-03-04T06:39:06.965Z,989.26
2019-03-04T06:40:07.259Z,989.22
2019-03-04T06:41:07.513Z,989.18
2019-03-04T06:42:07.785Z,989.21
2019-03-04T06:43:08.067Z,989.12
2019-03-04T06:44:08.386Z,989.01
2019-03-04T06:45:08.674Z,989.04
2019-03-04T06:46:09.000Z,989.09
2019-03-04T06:47:09.244Z,989.07
2019-03-04T06:48:09.476Z,988.97
2019-03-04T06:49:09.799Z,989.03
2019-03-04T06:50:10.084Z,989.13
2019-03-04T06:51:10.343Z,989.15
2019-03-04T06:52:10.619Z,989.08
2019-03-04T06:53:10.916Z,989.12
2019-03-04T06:54:11.217Z,988.99
2019-03-04T06:55:11.580Z,989.02
2019-03-04T06:56:11.740Z,989.02
2019-03-04T06:57:12.015Z,988.99
2019-03-04T06:58:12.303Z,989.02
2019-03-04T06:59:12.577Z,988.96
2019-03-04T07:00:12.848Z,988.98
2019-03-04T07:01:13.135Z,988.92
2019-03-04T07:02:13.409Z,988.83
2019-03-04T07:03:13.848Z,988.76
2019-03-04T07:04:13.945Z,988.74
2019-03-04T07:05:14.238Z,988.70
2019-03-04T07:06:14.494Z,988.68
2019-03-04T07:07:14.770Z,988.65
2019-03-04T07:08:15.094Z,988.64
2019-03-04T07:09:15.324Z,988.58
2019-03-04T07:10:15.603Z,988.53
2019-03-04T07:11:15.916Z,988.49
2019-03-04T07:12:16.132Z,988.47
2019-03-04T07:13:16.453Z,988.49
2019-03-04T07:14:16.691Z,988.47
2019-03-04T07:15:16.985Z,988.53
2019-03-04T07:16:17.227Z,988.46
2019-03-04T07:17:17.522Z,988.42
2019-03-04T07:18:17.844Z,988.40
2019-03-04T07:19:18.138Z,988.40
2019-03-04T07:20:18.357Z,988.37
2019-03-04T07:21:18.628Z,988.42
2019-03-04T07:22:18.895Z,988.29
2019-03-04T07:23:19.208Z,988.30
2019-03-04T07:24:19.459Z,988.25
2019-03-04T07:25:19.755Z,988.24
2019-03-04T07:26:20.015Z,988.23
2019-03-04T07:27:20.308Z,988.33
2019-03-04T07:28:20.695Z,988.32
2019-03-04T07:29:20.831Z,988.37
2019-03-04T07:30:21.148Z,988.28
2019-03-04T07:31:21.395Z,988.29
2019-03-04T07:32:21.663Z,988.24
2019-03-04T07:33:21.945Z,988.19
2019-03-04T07:34:22.217Z,988.14
2019-03-04T07:35:22.521Z,988.14
2019-03-04T07:36:22.897Z,988.11
2019-03-04T07:37:23.027Z,988.07
2019-03-04T07:38:23.338Z,988.07
2019-03-04T07:39:23.633Z,988.07
2019-03-04T07:40:23.892Z,988.04
2019-03-04T07:41:24.157Z,988.04
2019-03-04T07:42:24.457Z,988.01
2019-03-04T07:43:24.726Z,988.00
2019-03-04T07:44:25.036Z,987.96
2019-03-04T07:45:25.257Z,987.87
2019-03-04T07:46:25.534Z,987.76
2019-03-04T07:47:25.818Z,987.79
2019-03-04T07:48:26.113Z,987.71
2019-03-04T07:49:26.362Z,987.75
2019-03-04T07:50:26.643Z,987.73
2019-03-04T07:51:26.940Z,987.75
2019-03-04T07:52:27.285Z,987.71
2019-03-04T07:53:27.493Z,987.69
2019-03-04T07:54:27.756Z,987.62
2019-03-04T07:55:28.026Z,987.55
2019-03-04T07:56:28.320Z,987.53
2019-03-04T07:57:28.602Z,987.51
2019-03-04T07:58:28.904Z,987.48
2019-03-04T07:59:29.151Z,987.47
2019-03-04T08:00:29.474Z,987.38
2019-03-04T08:01:29.757Z,987.28
2019-03-04T08:02:29.984Z,987.32
2019-03-04T08:03:30.277Z,987.30
2019-03-04T08:04:30.518Z,987.31
2019-03-04T08:05:30.836Z,987.28
2019-03-04T08:06:31.336Z,987.30
2019-03-04T08:07:31.347Z,987.29
2019-03-04T08:08:31.665Z,987.35
2019-03-04T08:09:32.036Z,987.48
2019-03-04T08:10:32.203Z,987.45
2019-03-04T08:11:32.473Z,987.43
2019-03-04T08:12:32.809Z,987.36
2019-03-04T08:13:33.051Z,987.33
2019-03-04T08:14:33.312Z,987.27
2019-03-04T08:15:33.594Z,987.19
2019-03-04T08:16:36.013Z,987.20
2019-03-04T08:17:34.265Z,987.18
2019-03-04T08:18:34.422Z,987.06
2019-03-04T08:19:34.685Z,987.03
2019-03-04T08:20:34.973Z,987.01
2019-03-04T08:21:35.252Z,987.03
2019-03-04T08:22:35.518Z,987.01
2019-03-04T08:23:35.786Z,987.02
2019-03-04T08:24:36.063Z,986.96
2019-03-04T08:25:36.467Z,986.89
2019-03-04T08:26:36.619Z,986.75
2019-03-04T08:27:36.883Z,986.76
2019-03-04T08:28:37.159Z,986.60
2019-03-04T08:29:37.418Z,986.57
2019-03-04T08:30:37.728Z,986.49
2019-03-04T08:31:38.006Z,986.52
2019-03-04T08:32:38.269Z,986.40
2019-03-04T08:33:38.622Z,986.32
2019-03-04T08:34:38.785Z,986.18
2019-03-04T08:35:39.103Z,985.99
2019-03-04T08:36:39.430Z,986.19
2019-03-04T08:37:39.645Z,986.28
2019-03-04T08:38:39.936Z,986.34
2019-03-04T08:39:40.194Z,986.33
2019-03-04T08:40:40.466Z,986.19
2019-03-04T08:41:40.782Z,986.05
2019-03-04T08:42:41.142Z,986.08
2019-03-04T08:43:41.336Z,986.31
2019-03-04T08:44:41.590Z,986.52
2019-03-04T08:45:41.869Z,986.36
2019-03-04T08:46:42.160Z,986.21
2019-03-04T08:47:42.432Z,986.09
2019-03-04T08:48:42.694Z,986.21
2019-03-04T08:49:43.059Z,986.19
2019-03-04T08:50:43.374Z,986.15
2019-03-04T08:51:43.538Z,986.09
2019-03-04T08:52:43.813Z,986.06
2019-03-04T08:53:44.097Z,985.96
2019-03-04T08:54:44.392Z,985.83
2019-03-04T08:55:45.321Z,985.62
2019-03-04T08:56:44.950Z,985.53
2019-03-04T08:57:45.196Z,985.59
2019-03-04T08:58:45.548Z,985.65
2019-03-04T08:59:45.765Z,985.71
2019-03-04T09:00:46.069Z,985.79
2019-03-04T09:01:46.333Z,985.93
2019-03-04T09:02:46.569Z,986.07
2019-03-04T09:03:46.873Z,986.00
2019-03-04T09:04:47.151Z,986.05
2019-03-04T09:05:47.447Z,985.98
2019-03-04T09:06:47.779Z,985.94
2019-03-04T09:07:47.939Z,985.83
2019-03-04T09:08:48.237Z,985.79
2019-03-04T09:09:48.540Z,985.75
2019-03-04T09:10:48.822Z,985.64
2019-03-04T09:11:49.105Z,985.61
2019-03-04T09:12:49.385Z,985.61
2019-03-04T09:13:49.615Z,985.58
2019-03-04T09:14:49.946Z,985.55
2019-03-04T09:15:50.236Z,985.51
2019-03-04T09:16:50.484Z,985.53
2019-03-04T09:17:50.761Z,985.60
2019-03-04T09:18:51.006Z,985.54
2019-03-04T09:19:51.302Z,985.50
2019-03-04T09:20:51.573Z,985.40
2019-03-04T09:21:51.867Z,985.41
2019-03-04T09:22:52.147Z,985.44
2019-03-04T09:23:52.541Z,985.39
2019-03-04T09:24:52.734Z,985.29
2019-03-04T09:25:53.006Z,985.22
2019-03-04T09:26:53.317Z,985.21
2019-03-04T09:27:53.579Z,985.13
2019-03-04T09:28:53.829Z,985.21
2019-03-04T09:29:54.122Z,985.28
2019-03-04T09:30:54.370Z,985.32
2019-03-04T09:31:54.821Z,985.32
2019-03-04T09:32:54.941Z,985.38
2019-03-04T09:33:55.243Z,985.40
2019-03-04T09:34:55.516Z,985.38
2019-03-04T09:35:55.740Z,985.35
2019-03-04T09:36:56.064Z,985.37
2019-03-04T09:37:56.306Z,985.38
2019-03-04T09:38:56.590Z,985.29
2019-03-04T09:39:56.954Z,985.26
2019-03-04T09:40:57.108Z,985.18
2019-03-04T09:41:57.444Z,985.13
2019-03-04T09:42:57.944Z,985.14
2019-03-04T09:43:57.976Z,985.09
2019-03-04T09:44:58.269Z,985.10
2019-03-04T09:45:58.532Z,985.14
2019-03-04T09:46:58.830Z,985.21
2019-03-04T09:47:59.098Z,985.27
2019-03-04T09:48:59.335Z,985.35
2019-03-04T09:49:59.633Z,985.25
2019-03-04T09:50:59.906Z,985.21
2019-03-04T09:52:00.187Z,985.23
2019-03-04T09:53:00.435Z,985.11
2019-03-04T09:54:00.727Z,985.14
2019-03-04T09:55:01.025Z,985.16
2019-03-04T09:56:01.317Z,985.19
2019-03-04T09:57:01.720Z,985.23
2019-03-04T09:58:01.835Z,985.18
2019-03-04T09:59:02.113Z,985.21
2019-03-04T10:00:02.423Z,985.21
2019-03-04T10:01:02.676Z,985.16
2019-03-04T10:02:02.976Z,985.08
2019-03-04T10:03:03.249Z,985.05
2019-03-04T10:04:03.536Z,985.05
2019-03-04T10:05:04.137Z,984.98
2019-03-04T10:06:04.058Z,985.00
2019-03-04T10:07:04.342Z,984.95
2019-03-04T10:08:04.631Z,984.97
2019-03-04T10:09:04.889Z,984.98
2019-03-04T10:10:05.209Z,984.98
2019-03-04T10:11:05.484Z,984.95
2019-03-04T10:12:05.777Z,984.89
2019-03-04T10:13:06.099Z,984.83
2019-03-04T10:14:06.311Z,984.81
2019-03-04T10:15:08.743Z,984.84
2019-03-04T10:16:06.870Z,984.71
2019-03-04T10:17:07.153Z,984.58
2019-03-04T10:18:07.433Z,984.55
2019-03-04T10:19:07.712Z,984.51
2019-03-04T10:20:07.992Z,984.43
2019-03-04T10:21:08.289Z,984.41
2019-03-04T10:22:08.492Z,984.41
2019-03-04T10:23:08.799Z,984.43
2019-03-04T10:24:09.066Z,984.41
2019-03-04T10:25:10.339Z,984.36
2019-03-04T10:26:09.607Z,984.23
2019-03-04T10:27:09.877Z,984.20
2019-03-04T10:28:10.188Z,984.12
2019-03-04T10:29:10.485Z,984.10
2019-03-04T10:30:10.804Z,984.12
2019-03-04T10:31:10.991Z,984.10
2019-03-04T10:32:11.253Z,984.00
2019-03-04T10:33:11.999Z,983.99
2019-03-04T10:34:11.895Z,984.00
2019-03-04T10:35:12.113Z,984.09
2019-03-04T10:36:12.395Z,984.06
2019-03-04T10:37:12.654Z,984.14
2019-03-04T10:38:22.011Z,984.19
2019-03-04T10:39:14.200Z,984.10
2019-03-04T10:40:15.551Z,984.00
2019-03-04T10:41:13.751Z,983.99
2019-03-04T10:42:14.019Z,984.10
2019-03-04T10:43:14.348Z,984.14
2019-03-04T10:44:15.499Z,984.00
2019-03-04T10:45:14.864Z,984.09
2019-03-04T10:46:15.233Z,984.12
2019-03-04T10:47:15.378Z,984.05
2019-03-04T10:48:15.692Z,984.01
2019-03-04T10:49:16.003Z,983.92
2019-03-04T10:50:16.240Z,983.86
2019-03-04T10:51:18.652Z,983.80
2019-03-04T10:52:16.825Z,983.83
2019-03-04T10:53:17.069Z,983.91
2019-03-04T10:54:17.363Z,983.92
2019-03-04T10:55:17.602Z,983.83
2019-03-04T10:56:17.860Z,983.86
2019-03-04T10:57:18.144Z,983.85
2019-03-04T10:58:18.435Z,983.85
2019-03-04T10:59:18.687Z,983.85
2019-03-04T11:00:18.971Z,983.70
2019-03-04T11:01:19.237Z,983.79
2019-03-04T11:02:19.543Z,983.81
2019-03-04T11:03:19.806Z,983.82
2019-03-04T11:04:20.090Z,983.52
2019-03-04T11:05:20.342Z,983.54
2019-03-04T11:06:20.631Z,983.79
2019-03-04T11:07:20.922Z,983.77
2019-03-04T11:08:21.217Z,983.67
2019-03-04T11:09:21.490Z,983.73
2019-03-04T11:10:21.771Z,983.66
2019-03-04T11:11:29.554Z,983.75
2019-03-04T11:12:23.311Z,983.70
2019-03-04T11:13:22.611Z,983.66
2019-03-04T11:14:22.883Z,983.66
2019-03-04T11:15:23.143Z,983.90
2019-03-04T11:16:23.419Z,983.88
2019-03-04T11:17:23.711Z,984.02
2019-03-04T11:18:24.005Z,984.10
2019-03-04T11:19:24.365Z,984.02
2019-03-04T11:20:24.513Z,984.15
2019-03-04T11:21:25.046Z,984.18
2019-03-04T11:22:25.091Z,984.06
2019-03-04T11:23:25.383Z,983.99
2019-03-04T11:24:25.660Z,983.98
2019-03-04T11:25:25.919Z,983.98
2019-03-04T11:26:26.203Z,984.02
2019-03-04T11:27:26.522Z,983.85
2019-03-04T11:28:26.755Z,984.13
2019-03-04T11:29:27.040Z,984.25
2019-03-04T11:30:27.277Z,984.42
2019-03-04T11:31:27.578Z,984.78
2019-03-04T11:32:27.820Z,984.91
2019-03-04T11:33:28.116Z,985.61
2019-03-04T11:34:28.398Z,985.54
2019-03-04T11:35:28.719Z,985.53
2019-03-04T11:36:28.939Z,985.45
2019-03-04T11:37:29.205Z,985.73
2019-03-04T11:38:29.476Z,985.94
2019-03-04T11:39:29.742Z,985.75
2019-03-04T11:40:30.031Z,985.66
2019-03-04T11:41:30.329Z,985.64
2019-03-04T11:42:30.584Z,985.90
2019-03-04T11:43:30.920Z,985.73
2019-03-04T11:44:31.185Z,985.89
2019-03-04T11:45:31.419Z,985.78
2019-03-04T11:46:31.714Z,985.82
2019-03-04T11:47:31.960Z,986.00
2019-03-04T11:48:32.256Z,986.09
2019-03-04T11:49:32.515Z,985.97
2019-03-04T11:50:32.801Z,986.25
2019-03-04T11:51:33.091Z,985.87
2019-03-04T11:52:33.436Z,985.79
2019-03-04T11:53:33.633Z,985.87
2019-03-04T11:54:33.873Z,985.69
2019-03-04T11:55:34.180Z,985.81
2019-03-04T11:56:34.468Z,985.69
2019-03-04T11:57:34.710Z,985.67
2019-03-04T11:58:35.008Z,985.75
2019-03-04T11:59:35.272Z,985.67
2019-03-04T12:00:35.635Z,985.53
2019-03-04T12:01:35.825Z,985.47
2019-03-04T12:02:38.809Z,985.44
2019-03-04T12:03:36.379Z,985.40
2019-03-04T12:04:36.645Z,985.45
2019-03-04T12:05:36.893Z,985.52
2019-03-04T12:06:37.206Z,985.46
2019-03-04T12:07:37.482Z,985.29
2019-03-04T12:08:37.813Z,985.26
2019-03-04T12:09:38.033Z,985.16
2019-03-04T12:10:38.308Z,985.22
2019-03-04T12:11:38.611Z,985.06
2019-03-04T12:12:38.850Z,984.89
2019-03-04T12:13:39.143Z,985.03
2019-03-04T12:14:39.415Z,984.97
2019-03-04T12:15:39.702Z,985.02
2019-03-04T12:16:40.016Z,984.98
2019-03-04T12:17:40.207Z,984.95
2019-03-04T12:18:40.516Z,984.92
2019-03-04T12:19:40.808Z,984.90
2019-03-04T12:20:41.096Z,985.03
2019-03-04T12:21:41.381Z,985.08
2019-03-04T12:22:41.635Z,985.10
2019-03-04T12:23:41.898Z,985.12
2019-03-04T12:24:45.133Z,985.16
2019-03-04T12:25:42.585Z,985.08
2019-03-04T12:26:42.763Z,985.01
2019-03-04T12:27:43.002Z,984.92
2019-03-04T12:28:43.277Z,984.92
2019-03-04T12:29:43.585Z,984.98
2019-03-04T12:30:44.441Z,984.96
2019-03-04T12:31:54.023Z,985.06